Time;durP1;ratioP1;P1;durP2;ratioP2;P2;SDS_P1;SDS_P2;PMS_P1;PMS_P2;Temp;Humidity;BMP_temperature;BMP_pressure;BME280_temperature;BME280_humidity;BME280_pressure;Samples;Min_cycle;Max_cycle;Signal;HPM_P1;HPM_P2
2023/01/19 00:01:37;;;;;;;22.95;10.57;;;;;;;;;;4933684;28;93444;-67
2023/01/19 00:04:04;;;;;;;21.08;11.20;;;;;;;;;;4934641;28;92484;-68
2023/01/19 00:06:30;;;;;;;24.55;10.50;;;;;;;;;;4932195;28;95713;-68
2023/01/19 00:08:57;;;;;;;17.95;9.40;;;;;;;;;;4934148;28;92918;-68
2023/01/19 00:11:24;;;;;;;16.77;10.82;;;;;;;;;;4937417;28;93194;-68
2023/01/19 00:13:50;;;;;;;19.92;9.63;;;;;;;;;;4953716;28;93270;-68
2023/01/19 00:16:17;;;;;;;19.27;10.60;;;;;;;;;;4939244;28;92566;-68
2023/01/19 00:18:44;;;;;;;18.25;9.43;;;;;;;;;;4935509;28;96584;-68
2023/01/19 00:21:13;;;;;;;16.60;9.55;;;;;;;;;;4936316;28;93862;-68
2023/01/19 00:23:39;;;;;;;20.70;10.05;;;;;;;;;;4937982;28;92537;-68
2023/01/19 00:26:07;;;;;;;25.42;10.40;;;;;;;;;;4938741;28;93186;-69
2023/01/19 00:28:33;;;;;;;23.10;10.73;;;;;;;;;;4942766;28;92504;-69
2023/01/19 00:31:00;;;;;;;16.52;9.27;;;;;;;;;;4944738;28;93666;-68
2023/01/19 00:33:26;;;;;;;20.58;9.93;;;;;;;;;;4942756;28;93350;-68
2023/01/19 00:35:55;;;;;;;21.50;9.65;;;;;;;;;;4941106;28;91872;-68
2023/01/19 00:38:22;;;;;;;18.95;9.95;;;;;;;;;;4936852;28;92827;-68
2023/01/19 00:40:48;;;;;;;21.60;8.90;;;;;;;;;;4932414;28;93869;-68
2023/01/19 00:43:15;;;;;;;18.38;10.05;;;;;;;;;;4946117;28;94877;-68
2023/01/19 00:45:41;;;;;;;24.00;9.65;;;;;;;;;;4939338;28;95772;-68
2023/01/19 00:48:07;;;;;;;21.45;10.05;;;;;;;;;;4942648;28;93789;-68
2023/01/19 00:50:34;;;;;;;17.52;9.55;;;;;;;;;;4929469;28;93434;-68
2023/01/19 00:53:00;;;;;;;22.95;9.10;;;;;;;;;;4936966;28;93441;-68
2023/01/19 00:55:28;;;;;;;19.17;8.90;;;;;;;;;;4937187;28;92414;-68
2023/01/19 00:57:54;;;;;;;19.73;9.35;;;;;;;;;;4937895;28;93231;-68
2023/01/19 01:00:21;;;;;;;20.42;8.93;;;;;;;;;;4936575;28;95171;-68
2023/01/19 01:02:48;;;;;;;16.02;8.60;;;;;;;;;;4936652;28;92432;-68
2023/01/19 01:05:15;;;;;;;20.58;10.00;;;;;;;;;;4935997;28;94621;-68
2023/01/19 01:07:45;;;;;;;30.20;10.02;;;;;;;;;;4932949;28;95527;-68
2023/01/19 01:10:12;;;;;;;20.73;9.13;;;;;;;;;;4938880;28;92429;-68
2023/01/19 01:12:38;;;;;;;23.52;9.65;;;;;;;;;;4936014;28;93504;-68
2023/01/19 01:15:09;;;;;;;16.17;8.52;;;;;;;;;;4936883;28;92476;-69
2023/01/19 01:17:35;;;;;;;21.55;9.68;;;;;;;;;;4936619;28;94282;-68
2023/01/19 01:20:03;;;;;;;9.13;6.70;;;;;;;;;;4939644;28;94656;-68
2023/01/19 01:22:30;;;;;;;15.55;6.53;;;;;;;;;;4946702;28;92485;-69
2023/01/19 01:24:56;;;;;;;10.55;5.72;;;;;;;;;;4947730;28;93163;-68
2023/01/19 01:27:22;;;;;;;11.18;6.45;;;;;;;;;;4936583;28;93804;-68
2023/01/19 01:29:49;;;;;;;10.85;6.32;;;;;;;;;;4936157;28;92437;-68
2023/01/19 01:32:16;;;;;;;7.97;4.90;;;;;;;;;;4936924;28;94939;-68
2023/01/19 01:34:42;;;;;;;7.20;4.47;;;;;;;;;;4932248;28;92485;-68
2023/01/19 01:37:09;;;;;;;12.10;5.40;;;;;;;;;;4938117;28;95132;-68
2023/01/19 01:39:35;;;;;;;10.27;5.15;;;;;;;;;;4934831;28;93414;-68
2023/01/19 01:42:02;;;;;;;5.45;3.85;;;;;;;;;;4935492;28;92610;-69
2023/01/19 01:44:50;;;;;;;4.47;3.20;;;;;;;;;;4933102;28;93500;-68
2023/01/19 01:47:29;;;;;;;5.40;2.75;;;;;;;;;;4938142;28;93441;-68
2023/01/19 01:50:05;;;;;;;3.58;2.72;;;;;;;;;;4924436;28;91857;-68
2023/01/19 01:52:33;;;;;;;3.42;2.10;;;;;;;;;;4935029;28;92450;-68
2023/01/19 01:55:01;;;;;;;5.50;1.75;;;;;;;;;;4942459;28;93517;-68
2023/01/19 01:57:28;;;;;;;4.95;2.08;;;;;;;;;;4934171;28;94935;-68
2023/01/19 01:59:56;;;;;;;3.10;1.40;;;;;;;;;;4938775;28;94576;-68
2023/01/19 02:05:11;;;;;;;3.72;1.60;;;;;;;;;;4948023;28;93224;-68
2023/01/19 02:13:18;;;;;;;3.80;2.05;;;;;;;;;;4936014;28;93158;-68
2023/01/19 02:15:45;;;;;;;2.28;1.52;;;;;;;;;;4938108;28;93089;-68
2023/01/19 02:18:12;;;;;;;1.70;1.60;;;;;;;;;;4944705;28;92736;-68
2023/01/19 02:20:41;;;;;;;1.70;1.42;;;;;;;;;;4942387;28;93366;-68
2023/01/19 02:23:14;;;;;;;1.67;1.58;;;;;;;;;;4940256;28;94910;-68
2023/01/19 02:25:40;;;;;;;1.80;1.50;;;;;;;;;;4935261;28;95816;-68
2023/01/19 02:28:07;;;;;;;1.95;1.40;;;;;;;;;;4944968;28;93807;-68
2023/01/19 02:30:34;;;;;;;2.55;1.58;;;;;;;;;;4950355;28;92687;-68
2023/01/19 02:33:00;;;;;;;3.25;1.70;;;;;;;;;;4938694;28;93443;-69
2023/01/19 02:35:27;;;;;;;2.10;1.00;;;;;;;;;;4934515;28;93515;-68
2023/01/19 02:37:53;;;;;;;2.58;0.90;;;;;;;;;;4936053;28;93655;-67
2023/01/19 02:40:23;;;;;;;6.30;0.95;;;;;;;;;;4945789;28;93612;-68
2023/01/19 02:42:50;;;;;;;6.05;0.77;;;;;;;;;;4935794;28;92465;-68
2023/01/19 02:45:19;;;;;;;6.90;1.42;;;;;;;;;;4934807;28;93436;-68
2023/01/19 02:47:46;;;;;;;7.13;1.23;;;;;;;;;;4933649;28;96882;-68
2023/01/19 02:50:31;;;;;;;3.13;0.80;;;;;;;;;;4935038;28;92477;-69
2023/01/19 02:53:01;;;;;;;9.45;1.20;;;;;;;;;;4934963;28;96410;-68
2023/01/19 02:55:30;;;;;;;5.82;0.88;;;;;;;;;;4935322;28;93620;-69
2023/01/19 02:58:06;;;;;;;10.85;1.63;;;;;;;;;;4934947;28;92516;-68
2023/01/19 03:00:44;;;;;;;2.80;0.70;;;;;;;;;;4937931;28;93496;-68
2023/01/19 03:03:29;;;;;;;7.15;1.25;;;;;;;;;;4934820;28;92435;-68
2023/01/19 03:05:55;;;;;;;6.55;1.08;;;;;;;;;;4932835;28;92970;-70
2023/01/19 03:08:32;;;;;;;7.90;1.08;;;;;;;;;;4934659;28;93447;-68
2023/01/19 03:11:03;;;;;;;3.55;0.77;;;;;;;;;;4935183;28;92402;-68
2023/01/19 03:13:51;;;;;;;3.20;0.65;;;;;;;;;;4938171;28;95563;-68
2023/01/19 03:16:17;;;;;;;7.78;1.05;;;;;;;;;;4939549;28;93367;-68
2023/01/19 03:18:46;;;;;;;1.38;0.90;;;;;;;;;;4946285;28;92570;-69
2023/01/19 03:21:14;;;;;;;3.70;0.60;;;;;;;;;;4942403;28;93106;-69
2023/01/19 03:23:42;;;;;;;4.95;0.68;;;;;;;;;;4943083;28;94743;-68
2023/01/19 03:26:11;;;;;;;8.90;0.80;;;;;;;;;;4944011;28;93452;-68
2023/01/19 03:28:39;;;;;;;3.15;0.75;;;;;;;;;;4933926;28;93779;-69
2023/01/19 03:31:08;;;;;;;3.33;0.40;;;;;;;;;;4937653;28;91824;-68
2023/01/19 03:33:36;;;;;;;1.88;0.60;;;;;;;;;;4947321;28;93991;-69
2023/01/19 03:36:07;;;;;;;4.75;0.50;;;;;;;;;;4935084;28;94540;-69
2023/01/19 03:38:35;;;;;;;2.28;0.32;;;;;;;;;;4937129;28;95145;-69
2023/01/19 03:41:05;;;;;;;2.90;0.60;;;;;;;;;;4934684;28;95501;-69
2023/01/19 03:43:33;;;;;;;8.67;1.17;;;;;;;;;;4937756;28;93466;-68
2023/01/19 03:46:01;;;;;;;0.73;0.40;;;;;;;;;;4939214;28;92911;-69
2023/01/19 03:48:28;;;;;;;4.90;0.75;;;;;;;;;;4939108;28;94291;-68
2023/01/19 03:50:54;;;;;;;6.03;0.98;;;;;;;;;;4945032;28;92597;-68
2023/01/19 03:53:21;;;;;;;3.47;0.65;;;;;;;;;;4932772;28;94342;-68
2023/01/19 03:55:49;;;;;;;2.17;0.50;;;;;;;;;;4938041;28;92994;-68
2023/01/19 03:58:16;;;;;;;9.27;1.10;;;;;;;;;;4941774;28;92636;-68
2023/01/19 04:00:42;;;;;;;4.18;0.63;;;;;;;;;;4935818;28;93166;-68
2023/01/19 04:03:12;;;;;;;3.40;0.55;;;;;;;;;;4934797;28;96315;-68
2023/01/19 04:05:39;;;;;;;7.35;0.68;;;;;;;;;;4942615;28;92563;-69
2023/01/19 04:08:05;;;;;;;6.50;0.77;;;;;;;;;;4953862;28;93160;-68
2023/01/19 04:10:32;;;;;;;2.92;0.60;;;;;;;;;;4934819;28;92429;-67
2023/01/19 04:12:59;;;;;;;1.85;0.65;;;;;;;;;;4948681;28;96597;-68
2023/01/19 04:15:26;;;;;;;3.55;0.68;;;;;;;;;;4945519;28;93720;-68
2023/01/19 04:17:53;;;;;;;3.17;0.85;;;;;;;;;;4933805;28;92862;-68
2023/01/19 04:20:20;;;;;;;3.03;0.75;;;;;;;;;;4946251;28;93512;-68
2023/01/19 04:22:47;;;;;;;3.72;0.43;;;;;;;;;;4946320;28;93835;-68
2023/01/19 04:25:14;;;;;;;1.75;0.73;;;;;;;;;;4937083;28;92485;-68
2023/01/19 04:27:40;;;;;;;2.47;0.60;;;;;;;;;;4936633;28;95208;-69
2023/01/19 04:30:08;;;;;;;0.98;0.43;;;;;;;;;;4939230;28;92449;-68
2023/01/19 04:32:35;;;;;;;1.48;0.52;;;;;;;;;;4939867;28;93117;-69
2023/01/19 04:35:01;;;;;;;3.10;0.75;;;;;;;;;;4942853;28;93425;-69
2023/01/19 04:37:27;;;;;;;2.25;0.60;;;;;;;;;;4935707;28;92460;-69
2023/01/19 04:39:54;;;;;;;1.60;0.50;;;;;;;;;;4933224;28;93157;-69
2023/01/19 04:42:20;;;;;;;1.75;0.57;;;;;;;;;;4934811;28;94219;-70
2023/01/19 04:44:46;;;;;;;5.43;0.90;;;;;;;;;;4933756;28;91712;-70
2023/01/19 04:47:13;;;;;;;3.55;0.90;;;;;;;;;;4930860;28;93802;-70
2023/01/19 04:49:39;;;;;;;3.08;1.00;;;;;;;;;;4937644;28;93772;-69
2023/01/19 04:52:06;;;;;;;4.50;0.70;;;;;;;;;;4927631;28;94846;-68
2023/01/19 04:54:32;;;;;;;4.28;1.00;;;;;;;;;;4932533;28;93401;-68
2023/01/19 04:56:59;;;;;;;9.30;1.10;;;;;;;;;;4929577;28;92478;-69
2023/01/19 04:59:25;;;;;;;9.57;1.63;;;;;;;;;;4930734;28;93168;-69
2023/01/19 05:01:51;;;;;;;2.92;1.25;;;;;;;;;;4935440;28;93369;-69
2023/01/19 05:04:18;;;;;;;9.43;1.10;;;;;;;;;;4934463;28;92865;-69
2023/01/19 05:06:44;;;;;;;10.43;1.10;;;;;;;;;;4937064;28;93836;-68
2023/01/19 05:09:13;;;;;;;6.38;0.88;;;;;;;;;;4938165;28;92670;-69
2023/01/19 05:11:39;;;;;;;4.75;0.90;;;;;;;;;;4938692;28;92890;-69
2023/01/19 05:14:05;;;;;;;7.72;1.75;;;;;;;;;;4934061;28;93569;-69
2023/01/19 05:16:33;;;;;;;5.88;1.35;;;;;;;;;;4934408;28;95150;-68
2023/01/19 05:18:59;;;;;;;4.80;0.85;;;;;;;;;;4942226;28;95592;-69
2023/01/19 05:21:26;;;;;;;7.30;0.90;;;;;;;;;;4946837;28;93454;-69
2023/01/19 05:23:52;;;;;;;3.88;0.85;;;;;;;;;;4947792;28;93920;-69
2023/01/19 05:26:18;;;;;;;9.80;1.25;;;;;;;;;;4935334;28;93553;-69
2023/01/19 05:28:44;;;;;;;18.98;1.52;;;;;;;;;;4945027;28;93472;-69
2023/01/19 05:31:11;;;;;;;8.45;1.13;;;;;;;;;;4950718;28;92397;-69
2023/01/19 05:33:37;;;;;;;15.45;1.95;;;;;;;;;;4955355;28;93443;-69
2023/01/19 05:36:03;;;;;;;14.32;2.25;;;;;;;;;;4941420;28;92484;-69
2023/01/19 05:38:30;;;;;;;4.72;1.17;;;;;;;;;;4954055;28;93076;-69
2023/01/19 05:41:01;;;;;;;10.82;1.52;;;;;;;;;;4942877;28;95845;-69
2023/01/19 05:43:27;;;;;;;11.35;1.60;;;;;;;;;;4945118;28;92566;-69
2023/01/19 05:45:54;;;;;;;10.65;1.85;;;;;;;;;;4937308;28;93206;-69
2023/01/19 05:48:20;;;;;;;11.90;1.85;;;;;;;;;;4935933;28;93653;-69
2023/01/19 05:50:48;;;;;;;8.82;2.10;;;;;;;;;;4943456;28;92547;-70
2023/01/19 05:53:15;;;;;;;13.10;2.08;;;;;;;;;;4938638;28;92445;-70
2023/01/19 05:55:41;;;;;;;7.38;1.02;;;;;;;;;;4947052;28;94480;-69
2023/01/19 05:58:08;;;;;;;15.40;2.13;;;;;;;;;;4937502;28;93089;-70
2023/01/19 06:00:34;;;;;;;5.20;1.27;;;;;;;;;;4944145;28;93446;-70
2023/01/19 06:03:00;;;;;;;12.98;1.60;;;;;;;;;;4953699;28;93239;-70
2023/01/19 06:05:28;;;;;;;8.63;1.40;;;;;;;;;;4947454;28;94855;-69
2023/01/19 06:07:55;;;;;;;9.75;1.38;;;;;;;;;;4949292;28;93757;-68
2023/01/19 06:10:22;;;;;;;13.48;1.77;;;;;;;;;;4932370;28;92541;-69
2023/01/19 06:12:48;;;;;;;18.88;2.45;;;;;;;;;;4953826;28;93454;-68
2023/01/19 06:15:15;;;;;;;19.45;2.30;;;;;;;;;;4940793;28;93657;-68
2023/01/19 06:17:41;;;;;;;17.95;2.15;;;;;;;;;;4939119;28;93538;-68
2023/01/19 06:20:08;;;;;;;6.60;1.40;;;;;;;;;;4935329;28;94369;-69
2023/01/19 06:22:34;;;;;;;17.40;1.70;;;;;;;;;;4946246;28;93603;-69
2023/01/19 06:25:01;;;;;;;14.95;1.92;;;;;;;;;;4947657;28;92744;-69
2023/01/19 06:27:27;;;;;;;10.32;2.17;;;;;;;;;;4935245;28;97788;-69
2023/01/19 06:29:53;;;;;;;10.52;1.30;;;;;;;;;;4947865;28;95076;-69
2023/01/19 06:32:19;;;;;;;16.55;1.90;;;;;;;;;;4943716;28;95595;-69
2023/01/19 06:34:46;;;;;;;14.73;2.22;;;;;;;;;;4929995;28;93554;-69
2023/01/19 06:37:13;;;;;;;13.35;2.78;;;;;;;;;;4936975;28;92544;-69
2023/01/19 06:39:41;;;;;;;17.88;3.58;;;;;;;;;;4938021;28;93860;-69
2023/01/19 06:42:07;;;;;;;12.80;2.50;;;;;;;;;;4935047;28;92543;-69
2023/01/19 06:44:33;;;;;;;9.45;1.88;;;;;;;;;;4933733;28;93236;-69
2023/01/19 06:47:00;;;;;;;13.05;2.45;;;;;;;;;;4935833;28;92809;-68
2023/01/19 06:49:41;;;;;;;19.98;3.45;;;;;;;;;;4938722;28;92589;-69
2023/01/19 06:52:08;;;;;;;11.45;1.88;;;;;;;;;;4937593;28;93223;-68
2023/01/19 06:54:34;;;;;;;17.13;2.10;;;;;;;;;;4934719;28;95951;-69
2023/01/19 06:57:00;;;;;;;11.52;2.47;;;;;;;;;;4934536;28;92506;-68
2023/01/19 06:59:28;;;;;;;10.70;2.22;;;;;;;;;;4939014;28;93489;-69
2023/01/19 07:01:55;;;;;;;14.20;2.05;;;;;;;;;;4946219;28;92475;-69
2023/01/19 07:04:22;;;;;;;20.08;2.10;;;;;;;;;;4949108;28;93168;-69
2023/01/19 07:06:48;;;;;;;22.40;2.13;;;;;;;;;;4933773;28;94560;-70
2023/01/19 07:09:15;;;;;;;18.13;2.35;;;;;;;;;;4930809;28;93196;-69
2023/01/19 07:11:42;;;;;;;18.60;3.30;;;;;;;;;;4934403;28;93347;-69
2023/01/19 07:14:08;;;;;;;13.88;3.80;;;;;;;;;;4948620;28;93374;-69
2023/01/19 07:16:34;;;;;;;16.45;3.13;;;;;;;;;;4935105;28;92553;-69
2023/01/19 07:19:01;;;;;;;18.40;3.13;;;;;;;;;;4936139;28;95022;-69
2023/01/19 07:21:27;;;;;;;14.35;3.80;;;;;;;;;;4936623;28;93500;-68
2023/01/19 07:23:54;;;;;;;13.23;3.60;;;;;;;;;;4948565;28;93108;-69
2023/01/19 07:26:23;;;;;;;23.50;5.10;;;;;;;;;;4939511;28;93530;-68
2023/01/19 07:28:52;;;;;;;19.70;3.67;;;;;;;;;;4934303;28;92568;-69
2023/01/19 07:31:19;;;;;;;17.35;3.28;;;;;;;;;;4934343;28;93315;-69
2023/01/19 07:33:45;;;;;;;15.25;3.08;;;;;;;;;;4951883;28;94504;-69
2023/01/19 07:36:12;;;;;;;16.98;3.13;;;;;;;;;;4941015;28;91856;-68
2023/01/19 07:38:38;;;;;;;15.95;3.53;;;;;;;;;;4940233;28;93243;-68
2023/01/19 07:41:06;;;;;;;19.65;2.80;;;;;;;;;;4942258;28;93465;-68
2023/01/19 07:43:33;;;;;;;18.42;2.88;;;;;;;;;;4937754;28;97091;-68
2023/01/19 07:46:00;;;;;;;24.17;3.63;;;;;;;;;;4934253;28;93656;-68
2023/01/19 07:48:26;;;;;;;10.98;2.63;;;;;;;;;;4934063;28;92626;-69
2023/01/19 07:50:57;;;;;;;24.17;3.22;;;;;;;;;;4936328;28;93127;-69
2023/01/19 07:53:23;;;;;;;;;;;;;;;;;;4931632;28;93632;-69
2023/01/19 07:55:53;;;;;;;11.52;2.42;;;;;;;;;;4938089;28;118483;-68
2023/01/19 07:58:19;;;;;;;22.20;3.33;;;;;;;;;;4938467;28;93192;-68
2023/01/19 08:00:46;;;;;;;27.25;4.20;;;;;;;;;;4927990;28;93170;-68
2023/01/19 08:03:12;;;;;;;24.50;3.42;;;;;;;;;;4937175;28;92520;-68
2023/01/19 08:05:38;;;;;;;23.85;3.40;;;;;;;;;;4945608;28;93399;-69
2023/01/19 08:08:05;;;;;;;30.63;4.53;;;;;;;;;;4943385;28;94822;-69
2023/01/19 08:10:33;;;;;;;14.60;4.38;;;;;;;;;;4943054;28;95638;-68
2023/01/19 08:12:59;;;;;;;31.20;4.75;;;;;;;;;;4941275;28;93448;-69
2023/01/19 08:15:26;;;;;;;20.25;3.85;;;;;;;;;;4941204;28;92514;-68
2023/01/19 08:17:53;;;;;;;18.25;4.03;;;;;;;;;;4943784;28;93399;-68
2023/01/19 08:20:22;;;;;;;26.60;4.72;;;;;;;;;;4947532;28;93417;-68
2023/01/19 08:22:48;;;;;;;28.73;4.00;;;;;;;;;;4933705;28;92421;-69
2023/01/19 08:25:15;;;;;;;19.50;3.25;;;;;;;;;;4934217;28;93263;-68
2023/01/19 08:27:41;;;;;;;24.92;4.63;;;;;;;;;;4940655;28;92618;-69
2023/01/19 08:30:08;;;;;;;23.98;3.65;;;;;;;;;;4942676;28;93219;-69
2023/01/19 08:32:34;;;;;;;21.38;4.25;;;;;;;;;;4935490;28;95977;-68
2023/01/19 08:35:01;;;;;;;32.60;2.75;;;;;;;;;;4937148;28;93078;-68
2023/01/19 08:37:27;;;;;;;22.88;4.15;;;;;;;;;;4934830;28;93557;-69
2023/01/19 08:39:54;;;;;;;29.23;4.05;;;;;;;;;;4935876;28;93638;-69
2023/01/19 08:42:20;;;;;;;29.65;3.97;;;;;;;;;;4933240;28;92740;-69
2023/01/19 08:44:46;;;;;;;17.15;3.30;;;;;;;;;;4931891;28;93188;-69
2023/01/19 08:47:23;;;;;;;36.08;5.45;;;;;;;;;;4939910;28;93463;-69
2023/01/19 08:49:49;;;;;;;33.70;3.72;;;;;;;;;;4937960;28;94301;-69
2023/01/19 08:52:15;;;;;;;19.00;3.20;;;;;;;;;;4935993;28;93620;-69
2023/01/19 08:54:42;;;;;;;23.13;3.85;;;;;;;;;;4939681;28;92672;-69
2023/01/19 08:57:08;;;;;;;19.63;3.08;;;;;;;;;;4918709;28;94823;-69
2023/01/19 08:59:35;;;;;;;20.63;3.30;;;;;;;;;;4942295;28;93177;-69
2023/01/19 09:02:02;;;;;;;17.48;3.47;;;;;;;;;;4950817;28;92684;-69
2023/01/19 09:04:28;;;;;;;21.85;3.70;;;;;;;;;;4935504;28;92777;-68
2023/01/19 09:06:54;;;;;;;18.60;2.78;;;;;;;;;;4955391;28;94935;-68
2023/01/19 09:09:21;;;;;;;18.52;3.83;;;;;;;;;;4944251;28;92635;-69
2023/01/19 09:11:47;;;;;;;18.10;2.40;;;;;;;;;;4936978;28;93729;-68
2023/01/19 09:14:14;;;;;;;14.73;3.08;;;;;;;;;;4936508;28;92321;-68
2023/01/19 09:16:40;;;;;;;21.23;2.85;;;;;;;;;;4937834;28;92576;-68
2023/01/19 09:19:08;;;;;;;11.27;2.25;;;;;;;;;;4936820;28;94309;-68
2023/01/19 09:21:34;;;;;;;16.05;2.58;;;;;;;;;;4935989;28;94888;-68
2023/01/19 09:24:00;;;;;;;14.07;2.17;;;;;;;;;;4952838;28;95508;-68
2023/01/19 09:26:26;;;;;;;16.13;1.85;;;;;;;;;;4957318;28;93474;-68
2023/01/19 09:28:53;;;;;;;15.10;2.22;;;;;;;;;;4944934;28;92690;-68
2023/01/19 09:31:20;;;;;;;23.50;3.05;;;;;;;;;;4939639;28;92369;-68
2023/01/19 09:33:46;;;;;;;11.13;2.28;;;;;;;;;;4936799;28;92544;-68
2023/01/19 09:36:13;;;;;;;14.07;2.15;;;;;;;;;;4955136;28;93238;-68
2023/01/19 09:38:39;;;;;;;28.02;2.90;;;;;;;;;;4956805;28;92704;-68
2023/01/19 09:41:16;;;;;;;18.27;2.92;;;;;;;;;;4935867;28;93492;-69
2023/01/19 09:44:00;;;;;;;23.35;2.75;;;;;;;;;;4937275;28;93195;-68
2023/01/19 09:46:33;;;;;;;19.23;2.85;;;;;;;;;;4934991;28;96334;-68
2023/01/19 09:49:05;;;;;;;19.73;4.07;;;;;;;;;;4947615;28;92490;-69
2023/01/19 09:51:33;;;;;;;15.43;3.38;;;;;;;;;;4936277;28;93350;-68
2023/01/19 09:54:15;;;;;;;22.48;3.50;;;;;;;;;;4937557;28;93531;-69
2023/01/19 09:56:42;;;;;;;18.35;4.05;;;;;;;;;;4952580;28;93822;-69
2023/01/19 09:59:23;;;;;;;20.92;3.20;;;;;;;;;;4954010;28;93231;-69
2023/01/19 10:01:49;;;;;;;16.13;3.20;;;;;;;;;;4946734;28;92537;-69
2023/01/19 10:04:28;;;;;;;18.35;3.10;;;;;;;;;;4936862;28;94102;-68
2023/01/19 10:07:19;;;;;;;17.20;2.55;;;;;;;;;;4940168;28;93768;-68
2023/01/19 10:09:46;;;;;;;;;;;;;;;;;;4921670;28;92957;-68
2023/01/19 10:12:12;;;;;;;15.35;2.50;;;;;;;;;;4933510;28;123124;-69
2023/01/19 10:14:42;;;;;;;18.63;3.15;;;;;;;;;;4924677;28;94451;-68
2023/01/19 10:17:18;;;;;;;18.52;4.72;;;;;;;;;;4938228;28;92487;-69
2023/01/19 10:19:46;;;;;;;15.25;2.47;;;;;;;;;;4934304;28;93776;-68
2023/01/19 10:22:20;;;;;;;17.23;2.58;;;;;;;;;;4927689;28;92487;-69
2023/01/19 10:24:50;;;;;;;16.08;2.60;;;;;;;;;;4923951;28;93196;-69
2023/01/19 10:27:17;;;;;;;14.98;2.67;;;;;;;;;;4939120;28;93118;-68
2023/01/19 10:29:44;;;;;;;11.10;2.30;;;;;;;;;;4943030;28;92927;-68
2023/01/19 10:32:11;;;;;;;7.93;2.25;;;;;;;;;;4933960;28;93278;-69
2023/01/19 10:34:37;;;;;;;12.15;2.03;;;;;;;;;;4931209;28;93476;-68
2023/01/19 10:37:14;;;;;;;14.95;2.10;;;;;;;;;;4931523;28;95251;-68
2023/01/19 10:39:41;;;;;;;11.48;2.33;;;;;;;;;;4918055;28;93448;-68
2023/01/19 10:42:11;;;;;;;9.48;2.00;;;;;;;;;;4949020;28;93680;-68
2023/01/19 10:44:37;;;;;;;9.50;1.92;;;;;;;;;;4916793;28;93140;-66
2023/01/19 10:47:05;;;;;;;11.10;2.20;;;;;;;;;;4934072;28;93811;-66
2023/01/19 10:49:35;;;;;;;8.48;2.22;;;;;;;;;;4935620;28;92857;-66
2023/01/19 10:52:02;;;;;;;9.73;1.88;;;;;;;;;;4935277;28;93635;-67
2023/01/19 10:54:29;;;;;;;9.55;2.70;;;;;;;;;;4933339;28;93209;-67
2023/01/19 10:56:57;;;;;;;7.75;1.60;;;;;;;;;;4936036;28;92659;-66
2023/01/19 10:59:42;;;;;;;10.75;2.20;;;;;;;;;;4948769;28;93663;-69
2023/01/19 11:02:19;;;;;;;9.13;1.95;;;;;;;;;;4925696;28;94926;-66
2023/01/19 11:04:48;;;;;;;11.45;2.22;;;;;;;;;;4942431;28;95661;-67
2023/01/19 11:07:33;;;;;;;8.52;2.30;;;;;;;;;;4936044;28;93775;-66
2023/01/19 11:10:15;;;;;;;7.38;1.60;;;;;;;;;;4944477;28;92545;-67
2023/01/19 11:12:43;;;;;;;3.88;1.27;;;;;;;;;;4937903;28;93313;-67
2023/01/19 11:15:14;;;;;;;6.47;2.28;;;;;;;;;;4933579;28;93550;-69
2023/01/19 11:17:43;;;;;;;9.27;3.72;;;;;;;;;;4940210;28;92682;-67
2023/01/19 11:20:17;;;;;;;12.75;2.63;;;;;;;;;;4952560;28;93286;-68
2023/01/19 11:22:43;;;;;;;8.82;2.08;;;;;;;;;;4945157;28;93787;-68
2023/01/19 11:25:20;;;;;;;16.20;2.17;;;;;;;;;;4934713;28;93138;-67
2023/01/19 11:27:50;;;;;;;6.20;1.92;;;;;;;;;;4923967;28;96663;-67
2023/01/19 11:30:19;;;;;;;9.45;2.08;;;;;;;;;;4937677;28;92641;-67
2023/01/19 11:32:48;;;;;;;7.38;2.20;;;;;;;;;;4933371;28;93062;-67
2023/01/19 11:35:32;;;;;;;10.32;2.00;;;;;;;;;;4934476;28;96342;-67
2023/01/19 11:38:10;;;;;;;6.47;2.10;;;;;;;;;;4944729;28;92918;-67
2023/01/19 11:40:37;;;;;;;9.32;2.72;;;;;;;;;;4941727;28;94167;-67
2023/01/19 11:43:03;;;;;;;12.05;2.95;;;;;;;;;;4942667;28;93498;-68
2023/01/19 11:45:31;;;;;;;5.90;1.75;;;;;;;;;;4956089;28;91826;-67
2023/01/19 11:48:01;;;;;;;6.47;2.50;;;;;;;;;;4937271;28;92554;-67
2023/01/19 11:50:30;;;;;;;15.15;2.88;;;;;;;;;;4938486;28;92446;-67
2023/01/19 11:53:14;;;;;;;15.07;5.70;;;;;;;;;;4936889;28;95617;-68
2023/01/19 11:55:44;;;;;;;8.15;2.97;;;;;;;;;;4949057;28;93416;-68
2023/01/19 11:58:15;;;;;;;7.93;2.72;;;;;;;;;;4954004;28;92488;-68
2023/01/19 12:00:47;;;;;;;8.00;2.25;;;;;;;;;;4936541;28;93200;-68
2023/01/19 12:03:16;;;;;;;8.52;1.48;;;;;;;;;;4951517;28;94152;-68
2023/01/19 12:05:46;;;;;;;3.97;1.40;;;;;;;;;;4952114;28;92928;-68
2023/01/19 12:08:17;;;;;;;7.72;2.35;;;;;;;;;;4945560;28;92397;-68
2023/01/19 12:10:43;;;;;;;;;;;;;;;;;;4939470;28;91645;-68
2023/01/19 12:13:23;;;;;;;7.45;2.00;;;;;;;;;;4939258;28;122988;-68
2023/01/19 12:15:53;;;;;;;7.10;2.10;;;;;;;;;;4940262;28;93395;-67
2023/01/19 12:18:21;;;;;;;6.38;1.70;;;;;;;;;;4934872;28;94926;-67
2023/01/19 12:20:49;;;;;;;3.45;1.52;;;;;;;;;;4938457;28;95575;-68
2023/01/19 12:23:24;;;;;;;8.02;1.77;;;;;;;;;;4951032;28;93354;-67
2023/01/19 12:25:51;;;;;;;3.05;1.20;;;;;;;;;;4955312;28;92479;-68
2023/01/19 12:28:21;;;;;;;5.07;1.80;;;;;;;;;;4945486;28;92884;-68
2023/01/19 12:30:50;;;;;;;6.68;1.90;;;;;;;;;;4941128;28;93451;-68
2023/01/19 12:33:20;;;;;;;4.93;1.47;;;;;;;;;;4942723;28;93812;-67
2023/01/19 12:35:53;;;;;;;6.80;1.60;;;;;;;;;;4950980;28;92929;-68
2023/01/19 12:38:32;;;;;;;5.80;1.50;;;;;;;;;;4956242;28;94548;-68
2023/01/19 12:41:14;;;;;;;8.75;1.77;;;;;;;;;;4950084;28;93000;-68
2023/01/19 12:43:41;;;;;;;4.88;1.55;;;;;;;;;;4937144;28;95873;-68
2023/01/19 12:46:28;;;;;;;5.80;1.52;;;;;;;;;;4946502;28;92529;-68
2023/01/19 12:49:01;;;;;;;3.00;0.98;;;;;;;;;;4938209;28;94554;-68
2023/01/19 12:51:28;;;;;;;7.07;1.67;;;;;;;;;;4936562;28;94532;-69
2023/01/19 12:53:56;;;;;;;4.47;1.50;;;;;;;;;;4940155;28;93146;-67
2023/01/19 12:56:28;;;;;;;8.88;1.45;;;;;;;;;;4938107;28;96036;-68
2023/01/19 12:58:55;;;;;;;5.18;1.63;;;;;;;;;;4934259;28;92580;-68
2023/01/19 13:01:23;;;;;;;8.95;1.92;;;;;;;;;;4943458;28;93170;-68
2023/01/19 13:03:57;;;;;;;7.03;1.90;;;;;;;;;;4948531;28;94528;-68
2023/01/19 13:06:42;;;;;;;7.75;1.60;;;;;;;;;;4940815;28;92513;-68
2023/01/19 13:09:26;;;;;;;9.23;1.80;;;;;;;;;;4955238;28;94734;-68
2023/01/19 13:12:13;;;;;;;15.07;1.92;;;;;;;;;;4955992;28;93497;-68
2023/01/19 13:14:41;;;;;;;5.68;1.73;;;;;;;;;;4935727;28;92626;-68
2023/01/19 13:17:26;;;;;;;6.65;1.75;;;;;;;;;;4938139;28;94009;-68
2023/01/19 13:20:04;;;;;;;6.03;1.55;;;;;;;;;;4937584;28;92399;-67
2023/01/19 13:22:48;;;;;;;3.45;1.20;;;;;;;;;;4943757;28;93350;-68
2023/01/19 13:25:29;;;;;;;8.05;2.10;;;;;;;;;;4939813;28;93963;-68
2023/01/19 13:27:56;;;;;;;8.50;2.15;;;;;;;;;;4937291;28;91851;-67
2023/01/19 13:30:25;;;;;;;7.90;0.88;;;;;;;;;;4951572;28;92491;-67
2023/01/19 13:32:56;;;;;;;4.80;1.30;;;;;;;;;;4938146;28;93592;-67
2023/01/19 13:35:22;;;;;;;;;;;;;;;;;;4935655;28;95523;-68
2023/01/19 13:37:49;;;;;;;5.78;1.77;;;;;;;;;;4940578;28;125500;-68
2023/01/19 13:40:31;;;;;;;6.30;1.42;;;;;;;;;;4934802;28;92467;-68
2023/01/19 13:42:57;;;;;;;6.25;1.20;;;;;;;;;;4942999;28;94728;-67
2023/01/19 13:45:28;;;;;;;11.70;1.67;;;;;;;;;;4940568;28;93422;-67
2023/01/19 13:47:56;;;;;;;3.80;1.33;;;;;;;;;;4937704;28;92457;-67
2023/01/19 13:50:28;;;;;;;8.30;1.10;;;;;;;;;;4926785;28;93903;-67
2023/01/19 13:52:55;;;;;;;5.55;1.52;;;;;;;;;;4934953;28;92671;-68
2023/01/19 13:55:22;;;;;;;9.23;1.67;;;;;;;;;;4917523;28;92824;-67
2023/01/19 13:57:49;;;;;;;6.40;1.20;;;;;;;;;;4950408;28;92516;-68
2023/01/19 14:00:16;;;;;;;5.60;1.33;;;;;;;;;;4946338;28;95965;-68
2023/01/19 14:02:54;;;;;;;7.60;1.40;;;;;;;;;;4935883;28;95885;-67
2023/01/19 14:05:22;;;;;;;4.78;1.02;;;;;;;;;;4933904;28;93435;-68
2023/01/19 14:08:12;;;;;;;5.38;1.10;;;;;;;;;;4935164;28;92461;-67
2023/01/19 14:10:41;;;;;;;5.65;1.65;;;;;;;;;;4926678;28;93316;-67
2023/01/19 14:13:17;;;;;;;6.78;1.08;;;;;;;;;;4936226;28;93493;-67
2023/01/19 14:15:45;;;;;;;4.28;0.90;;;;;;;;;;4932157;28;92453;-67
2023/01/19 14:18:15;;;;;;;5.43;1.27;;;;;;;;;;4928674;28;93582;-67
2023/01/19 14:21:00;;;;;;;4.10;0.95;;;;;;;;;;4934007;28;93256;-67
2023/01/19 14:23:35;;;;;;;5.88;1.15;;;;;;;;;;4935260;28;92570;-67
2023/01/19 14:26:01;;;;;;;4.00;1.10;;;;;;;;;;4943374;28;96881;-67
2023/01/19 14:28:34;;;;;;;6.50;1.63;;;;;;;;;;4945799;28;92912;-67
2023/01/19 14:31:01;;;;;;;3.13;1.50;;;;;;;;;;4942392;28;93613;-68
2023/01/19 14:33:32;;;;;;;1.92;0.95;;;;;;;;;;4933623;28;93511;-67
2023/01/19 14:36:07;;;;;;;6.57;1.10;;;;;;;;;;4934855;28;92501;-67
2023/01/19 14:38:33;;;;;;;3.05;0.90;;;;;;;;;;4928703;28;94259;-67
2023/01/19 14:41:00;;;;;;;1.52;0.80;;;;;;;;;;4939976;28;93392;-67
2023/01/19 14:43:28;;;;;;;5.78;1.17;;;;;;;;;;4948555;28;91980;-67
2023/01/19 14:45:55;;;;;;;8.68;1.20;;;;;;;;;;4940413;28;92909;-67
2023/01/19 14:48:21;;;;;;;5.13;1.10;;;;;;;;;;4932790;28;93318;-67
2023/01/19 14:50:49;;;;;;;4.18;1.30;;;;;;;;;;4939462;28;94967;-67
2023/01/19 14:53:30;;;;;;;7.90;1.70;;;;;;;;;;4955475;28;93749;-67
2023/01/19 14:55:59;;;;;;;4.70;1.55;;;;;;;;;;4946646;28;92457;-67
2023/01/19 14:58:26;;;;;;;11.52;2.13;;;;;;;;;;4934132;28;93377;-67